Time;durP1;ratioP1;P1;durP2;ratioP2;P2;SDS_P1;SDS_P2;PMS_P1;PMS_P2;Temp;Humidity;BMP_temperature;BMP_pressure;BME280_temperature;BME280_humidity;BME280_pressure;Samples;Min_cycle;Max_cycle;Signal;HPM_P1;HPM_P2
2024/02/27 00:01:11;0.00;0.00;0.62;0.00;0.00;0.62;2.10;1.20;;;21.60;23.60;;;;;;2263325;61;20621;-67
2024/02/27 00:03:56;0.00;0.00;0.62;0.00;0.00;0.62;2.17;1.47;;;21.60;23.60;;;;;;2263572;61;20395;-65
2024/02/27 00:06:43;0.00;0.00;0.62;0.00;0.00;0.62;2.40;1.60;;;21.60;23.60;;;;;;2263296;61;20412;-66
2024/02/27 00:09:29;0.00;0.00;0.62;0.00;0.00;0.62;2.00;1.53;;;21.60;23.60;;;;;;2263334;61;20422;-66
2024/02/27 00:12:15;0.00;0.00;0.62;0.00;0.00;0.62;2.07;1.33;;;21.60;23.60;;;;;;2265491;61;20912;-66
2024/02/27 00:15:00;0.00;0.00;0.62;0.00;0.00;0.62;2.13;1.53;;;21.60;23.60;;;;;;2268033;61;20370;-66
2024/02/27 00:17:45;0.00;0.00;0.62;0.00;0.00;0.62;1.90;1.40;;;21.60;23.60;;;;;;2267225;61;20355;-66
2024/02/27 00:20:29;0.00;0.00;0.62;0.00;0.00;0.62;2.50;1.60;;;21.60;23.60;;;;;;2267703;61;20888;-66
2024/02/27 00:23:14;0.00;0.00;0.62;0.00;0.00;0.62;2.10;1.47;;;21.60;23.60;;;;;;2267797;61;20363;-66
2024/02/27 00:26:00;0.00;0.00;0.62;0.00;0.00;0.62;2.17;1.63;;;21.60;23.60;;;;;;2267491;61;20379;-66
2024/02/27 00:28:44;0.00;0.00;0.62;0.00;0.00;0.62;2.40;1.80;;;21.60;23.60;;;;;;2267300;61;20413;-66
2024/02/27 00:31:29;0.00;0.00;0.62;0.00;0.00;0.62;1.80;1.30;;;21.60;23.60;;;;;;2267508;61;20383;-66
2024/02/27 00:34:14;0.00;0.00;0.62;0.00;0.00;0.62;1.87;1.30;;;21.60;23.60;;;;;;2267576;61;20475;-66
2024/02/27 00:36:59;0.00;0.00;0.62;0.00;0.00;0.62;2.70;1.57;;;21.60;23.60;;;;;;2267348;61;20371;-66
2024/02/27 00:39:44;0.00;0.00;0.62;0.00;0.00;0.62;1.97;1.30;;;21.60;23.60;;;;;;2267248;61;20445;-66
2024/02/27 00:42:31;0.00;0.00;0.62;0.00;0.00;0.62;2.03;1.47;;;21.60;24.10;;;;;;2264271;61;20368;-66
2024/02/27 00:45:16;0.00;0.00;0.62;0.00;0.00;0.62;1.77;1.23;;;21.60;23.60;;;;;;2267560;61;20733;-66
2024/02/27 00:48:00;0.00;0.00;0.62;0.00;0.00;0.62;1.80;1.10;;;21.60;23.60;;;;;;2264215;61;20415;-66
2024/02/27 00:50:45;0.00;0.00;0.62;0.00;0.00;0.62;2.33;1.93;;;21.60;23.60;;;;;;2263441;61;20376;-66
2024/02/27 00:53:30;0.00;0.00;0.62;0.00;0.00;0.62;1.73;1.30;;;21.60;23.60;;;;;;2263417;61;20913;-66
2024/02/27 00:56:14;0.00;0.00;0.62;0.00;0.00;0.62;1.70;1.37;;;21.60;23.60;;;;;;2263484;61;20882;-66
2024/02/27 00:59:00;0.00;0.00;0.62;0.00;0.00;0.62;2.10;1.30;;;21.60;23.60;;;;;;2263424;61;20380;-65
2024/02/27 01:01:45;0.00;0.00;0.62;0.00;0.00;0.62;2.20;1.57;;;21.60;23.60;;;;;;2262958;61;20391;-66
2024/02/27 01:04:29;0.00;0.00;0.62;0.00;0.00;0.62;2.23;1.77;;;21.60;23.60;;;;;;2263440;61;20410;-66
2024/02/27 01:07:14;0.00;0.00;0.62;0.00;0.00;0.62;2.43;1.60;;;21.60;23.60;;;;;;2263362;61;20379;-66
2024/02/27 01:09:58;0.00;0.00;0.62;0.00;0.00;0.62;2.30;1.60;;;21.60;23.60;;;;;;2263125;61;20394;-66
2024/02/27 01:12:43;0.00;0.00;0.62;0.00;0.00;0.62;2.07;1.50;;;21.60;23.60;;;;;;2265020;61;20367;-66
2024/02/27 01:15:29;0.00;0.00;0.62;0.00;0.00;0.62;2.00;1.60;;;21.60;23.60;;;;;;2267460;61;20350;-66
2024/02/27 01:18:14;0.00;0.00;0.62;0.00;0.00;0.62;1.87;1.37;;;21.60;23.60;;;;;;2264073;61;20371;-66
2024/02/27 01:21:00;0.00;0.00;0.62;0.00;0.00;0.62;1.97;1.77;;;21.50;24.10;;;;;;2267276;61;20378;-66
2024/02/27 01:23:46;0.00;0.00;0.62;0.00;0.00;0.62;1.77;1.27;;;21.60;23.60;;;;;;2267416;61;20933;-66
2024/02/27 01:26:31;0.00;0.00;0.62;0.00;0.00;0.62;1.90;1.20;;;21.60;23.60;;;;;;2267913;61;20429;-66
2024/02/27 01:29:16;0.00;0.00;0.62;0.00;0.00;0.62;1.70;1.10;;;21.50;23.50;;;;;;2268120;61;20803;-66
2024/02/27 01:32:08;0.00;0.00;0.62;0.00;0.00;0.62;2.23;1.47;;;21.50;23.50;;;;;;2267904;61;20395;-66
2024/02/27 01:34:52;0.00;0.00;0.62;0.00;0.00;0.62;2.20;1.50;;;21.60;23.60;;;;;;2267797;61;20372;-66
2024/02/27 01:37:38;0.00;0.00;0.62;0.00;0.00;0.62;2.30;1.40;;;21.50;23.50;;;;;;2268006;61;20390;-66
2024/02/27 01:40:23;0.00;0.00;0.62;0.00;0.00;0.62;1.70;1.30;;;21.50;23.50;;;;;;2268081;61;20387;-66
2024/02/27 01:43:21;0.00;0.00;0.62;0.00;0.00;0.62;2.53;1.67;;;21.50;23.50;;;;;;2267990;61;20361;-66
2024/02/27 01:46:12;0.00;0.00;0.62;0.00;0.00;0.62;1.70;1.10;;;21.50;23.50;;;;;;2267772;61;20424;-66
2024/02/27 01:48:58;0.00;0.00;0.62;0.00;0.00;0.62;3.00;1.77;;;21.50;23.50;;;;;;2560916;45;20364;-66
2024/02/27 01:51:46;0.00;0.00;0.62;0.00;0.00;0.62;2.70;1.60;;;21.60;23.60;;;;;;2256892;61;20738;-66
2024/02/27 01:54:31;0.00;0.00;0.62;0.00;0.00;0.62;2.00;1.40;;;21.50;23.50;;;;;;2259878;61;20377;-66
2024/02/27 01:57:19;0.00;0.00;0.62;0.00;0.00;0.62;1.80;1.13;;;21.50;23.50;;;;;;2259879;61;20353;-66
2024/02/27 02:00:09;0.00;0.00;0.62;0.00;0.00;0.62;2.23;1.50;;;21.50;23.50;;;;;;2259816;61;20928;-66
2024/02/27 02:02:57;0.00;0.00;0.62;0.00;0.00;0.62;2.27;1.23;;;21.50;23.50;;;;;;2256753;61;20365;-66
2024/02/27 02:05:44;0.00;0.00;0.62;0.00;0.00;0.62;1.80;1.20;;;21.50;23.50;;;;;;2260007;61;20385;-66
2024/02/27 02:08:29;0.00;0.00;0.62;0.00;0.00;0.62;1.83;1.40;;;21.50;23.50;;;;;;2259427;61;20373;-66
2024/02/27 02:11:13;0.00;0.00;0.62;0.00;0.00;0.62;2.17;1.80;;;21.50;24.00;;;;;;2259823;61;20484;-66
2024/02/27 02:13:58;0.00;0.00;0.62;0.00;0.00;0.62;1.90;1.40;;;21.50;23.50;;;;;;2268082;61;20367;-66
2024/02/27 02:16:43;0.00;0.00;0.62;0.00;0.00;0.62;2.17;1.57;;;21.50;23.50;;;;;;2267578;61;20847;-65
2024/02/27 02:19:28;0.00;0.00;0.62;0.00;0.00;0.62;1.87;1.33;;;21.50;23.50;;;;;;2267726;61;20413;-66
2024/02/27 02:22:13;0.00;0.00;0.62;0.00;0.00;0.62;2.53;1.77;;;21.50;23.50;;;;;;2267450;61;21026;-66
2024/02/27 02:24:59;0.00;0.00;0.62;0.00;0.00;0.62;2.23;1.60;;;21.50;23.50;;;;;;2263540;61;20368;-66
2024/02/27 02:27:44;0.00;0.00;0.62;0.00;0.00;0.62;2.07;1.80;;;21.50;23.50;;;;;;2311085;53;20676;-66
2024/02/27 02:30:28;0.00;0.00;0.62;0.00;0.00;0.62;2.03;1.50;;;21.50;23.50;;;;;;2259116;58;20761;-66
2024/02/27 02:33:13;0.00;0.00;0.62;0.00;0.00;0.62;2.43;1.80;;;21.50;23.50;;;;;;2263860;61;20847;-67
2024/02/27 02:35:58;0.00;0.00;0.62;0.00;0.00;0.62;2.13;1.47;;;21.50;23.50;;;;;;2263965;61;21162;-66
2024/02/27 02:38:44;0.00;0.00;0.62;0.00;0.00;0.62;2.33;1.70;;;21.50;23.50;;;;;;2263499;61;20364;-66
2024/02/27 02:41:28;0.00;0.00;0.62;0.00;0.00;0.62;2.20;1.50;;;21.50;23.50;;;;;;2263504;61;20438;-66
2024/02/27 02:44:13;0.00;0.00;0.62;0.00;0.00;0.62;2.47;1.80;;;21.50;23.50;;;;;;2263402;61;20391;-66
2024/02/27 02:46:57;0.00;0.00;0.62;0.00;0.00;0.62;2.10;1.60;;;21.50;23.50;;;;;;2263426;61;20418;-66
2024/02/27 02:49:41;0.00;0.00;0.62;0.00;0.00;0.62;2.40;1.67;;;21.50;23.50;;;;;;2263706;61;20412;-66
2024/02/27 02:52:26;0.00;0.00;0.62;0.00;0.00;0.62;2.20;1.70;;;21.50;23.50;;;;;;2263784;61;20453;-66
2024/02/27 02:55:13;0.00;0.00;0.62;0.00;0.00;0.62;2.00;1.40;;;21.50;23.50;;;;;;2263861;61;20452;-66
2024/02/27 02:57:57;0.00;0.00;0.62;0.00;0.00;0.62;1.97;1.43;;;21.50;23.50;;;;;;2263965;61;20421;-66
2024/02/27 03:00:42;0.00;0.00;0.62;0.00;0.00;0.62;2.20;1.70;;;21.50;23.50;;;;;;2263519;61;20439;-66
2024/02/27 03:03:26;0.00;0.00;0.62;0.00;0.00;0.62;2.00;1.60;;;21.40;23.40;;;;;;2263664;61;20449;-66
2024/02/27 03:06:11;0.00;0.00;0.62;0.00;0.00;0.62;2.20;1.87;;;21.50;23.50;;;;;;2263755;61;20893;-67
2024/02/27 03:08:55;0.00;0.00;0.62;0.00;0.00;0.62;2.20;1.60;;;21.40;23.40;;;;;;2263822;61;20456;-66
2024/02/27 03:11:41;0.00;0.00;0.62;0.00;0.00;0.62;2.70;2.20;;;21.50;23.50;;;;;;2259439;61;20791;-65
2024/02/27 03:14:26;0.00;0.00;0.62;0.00;0.00;0.62;2.37;1.80;;;21.40;23.40;;;;;;2263627;61;20942;-66
2024/02/27 03:17:10;0.00;0.00;0.62;0.00;0.00;0.62;2.60;1.93;;;21.40;23.40;;;;;;2263807;61;20364;-65
2024/02/27 03:19:55;0.00;0.00;0.62;0.00;0.00;0.62;2.40;1.80;;;21.40;23.40;;;;;;2263659;61;20550;-66
2024/02/27 03:22:39;0.00;0.00;0.62;0.00;0.00;0.62;2.87;1.67;;;21.50;23.50;;;;;;2263501;61;20389;-67
2024/02/27 03:25:24;0.00;0.00;0.62;0.00;0.00;0.62;2.37;2.00;;;21.40;23.40;;;;;;2263618;61;20368;-66
2024/02/27 03:28:10;0.00;0.00;0.62;0.00;0.00;0.62;2.73;1.80;;;21.40;23.40;;;;;;2263884;61;20368;-65
2024/02/27 03:30:54;0.00;0.00;0.62;0.00;0.00;0.62;1.87;1.40;;;21.40;23.40;;;;;;2263578;61;20546;-66
2024/02/27 03:33:39;0.00;0.00;0.62;0.00;0.00;0.62;2.10;1.60;;;21.40;23.40;;;;;;2263684;61;20375;-66
2024/02/27 03:36:23;0.00;0.00;0.62;0.00;0.00;0.62;1.90;1.57;;;21.40;23.40;;;;;;2263710;61;20410;-66
2024/02/27 03:39:08;0.00;0.00;0.62;0.00;0.00;0.62;2.27;1.70;;;21.40;23.40;;;;;;2263710;61;20372;-66
2024/02/27 03:41:52;0.00;0.00;0.62;0.00;0.00;0.62;2.63;1.70;;;21.40;23.40;;;;;;2263641;61;20453;-66
2024/02/27 03:44:43;0.00;0.00;0.62;0.00;0.00;0.62;2.57;1.70;;;21.40;23.40;;;;;;2263565;61;20368;-66
2024/02/27 03:47:27;0.00;0.00;0.62;0.00;0.00;0.62;2.07;1.43;;;21.40;23.40;;;;;;2264527;61;20391;-65
2024/02/27 03:50:12;0.00;0.00;0.62;0.00;0.00;0.62;2.30;1.60;;;21.40;23.40;;;;;;2267890;61;20379;-66
2024/02/27 03:52:56;0.00;0.00;0.62;0.00;0.00;0.62;2.00;1.50;;;21.40;23.40;;;;;;2267698;61;20414;-66
2024/02/27 03:55:41;0.00;0.00;0.62;0.00;0.00;0.62;1.87;1.47;;;21.40;23.40;;;;;;2267552;61;20417;-66
2024/02/27 03:58:26;0.00;0.00;0.62;0.00;0.00;0.62;2.10;1.67;;;21.40;23.40;;;;;;2267598;61;20454;-65
2024/02/27 04:01:16;0.00;0.00;0.62;0.00;0.00;0.62;1.83;1.40;;;21.40;23.40;;;;;;2267671;61;20452;-66
2024/02/27 04:04:01;0.00;0.00;0.62;0.00;0.00;0.62;1.87;1.40;;;21.40;23.40;;;;;;2267756;61;20367;-66
2024/02/27 04:06:46;0.00;0.00;0.62;0.00;0.00;0.62;2.33;1.73;;;21.40;23.40;;;;;;2267239;61;20886;-66
2024/02/27 04:09:30;0.00;0.00;0.62;0.00;0.00;0.62;1.97;1.50;;;21.40;23.40;;;;;;2267640;61;20421;-66
2024/02/27 04:12:15;0.00;0.00;0.62;0.00;0.00;0.62;1.87;1.43;;;21.40;23.40;;;;;;2265631;61;20820;-66
2024/02/27 04:14:59;0.00;0.00;0.62;0.00;0.00;0.62;2.70;1.63;;;21.40;23.40;;;;;;2263385;61;20438;-66
2024/02/27 04:17:45;0.00;0.00;0.62;0.00;0.00;0.62;2.57;1.83;;;21.40;23.40;;;;;;2263329;61;20913;-66
2024/02/27 04:20:30;0.00;0.00;0.62;0.00;0.00;0.62;2.63;1.80;;;21.40;23.40;;;;;;2263554;61;20438;-66
2024/02/27 04:23:15;0.00;0.00;0.62;0.00;0.00;0.62;2.30;1.60;;;21.40;23.40;;;;;;2263586;61;20452;-66
2024/02/27 04:26:01;0.00;0.00;0.62;0.00;0.00;0.62;1.80;1.30;;;21.40;23.50;;;;;;2263296;61;20392;-66
2024/02/27 04:28:45;0.00;0.00;0.62;0.00;0.00;0.62;2.03;1.53;;;21.40;23.40;;;;;;2263298;61;20375;-66
2024/02/27 04:31:30;0.00;0.00;0.62;0.00;0.00;0.62;2.50;1.40;;;21.40;23.40;;;;;;2263596;61;20395;-66
2024/02/27 04:34:16;0.00;0.00;0.62;0.00;0.00;0.62;2.20;1.60;;;21.40;23.40;;;;;;2263891;61;20364;-66
2024/02/27 04:37:01;0.00;0.00;0.62;0.00;0.00;0.62;2.33;1.50;;;21.30;23.40;;;;;;2263104;61;20386;-66
2024/02/27 04:39:46;0.00;0.00;0.62;0.00;0.00;0.62;1.90;1.33;;;21.30;23.40;;;;;;2263290;61;20901;-66
2024/02/27 04:42:30;0.00;0.00;0.62;0.00;0.00;0.62;2.50;1.63;;;21.30;23.40;;;;;;2263437;61;20359;-66
2024/02/27 04:45:15;0.00;0.00;0.62;0.00;0.00;0.62;2.33;1.87;;;21.30;23.40;;;;;;2260325;61;20414;-66
2024/02/27 04:48:00;0.00;0.00;0.62;0.00;0.00;0.62;1.87;1.40;;;21.30;23.40;;;;;;2262237;61;20909;-66
2024/02/27 04:50:46;0.00;0.00;0.62;0.00;0.00;0.62;2.30;1.57;;;21.30;23.40;;;;;;2267439;61;20867;-66
2024/02/27 04:53:31;0.00;0.00;0.62;0.00;0.00;0.62;2.40;1.60;;;21.30;23.40;;;;;;2267766;61;20367;-66
2024/02/27 04:56:15;0.00;0.00;0.62;0.00;0.00;0.62;2.73;2.03;;;21.30;23.40;;;;;;2267670;61;20426;-66
2024/02/27 04:59:02;0.00;0.00;0.62;0.00;0.00;0.62;1.90;1.50;;;21.30;23.40;;;;;;2267314;61;20453;-66
2024/02/27 05:01:47;0.00;0.00;0.62;0.00;0.00;0.62;2.30;1.63;;;21.30;23.40;;;;;;2267317;61;20939;-67
2024/02/27 05:04:32;0.00;0.00;0.62;0.00;0.00;0.62;2.23;1.50;;;21.30;23.40;;;;;;2267396;61;20401;-67
2024/02/27 05:07:18;0.00;0.00;0.62;0.00;0.00;0.62;2.17;1.40;;;21.30;23.40;;;;;;2267401;61;20693;-66
2024/02/27 05:10:03;0.00;0.00;0.62;0.00;0.00;0.62;2.87;1.90;;;21.30;23.40;;;;;;2267323;61;20390;-65
2024/02/27 05:12:48;0.00;0.00;0.62;0.00;0.00;0.62;2.60;1.83;;;21.30;23.40;;;;;;2264258;61;20439;-66
2024/02/27 05:15:32;0.00;0.00;0.62;0.00;0.00;0.62;2.03;1.33;;;21.30;23.40;;;;;;2263544;61;20821;-66
2024/02/27 05:18:17;0.00;0.00;0.62;0.00;0.00;0.62;2.27;1.50;;;21.30;23.90;;;;;;2263291;61;20399;-66
2024/02/27 05:21:04;0.00;0.00;0.62;0.00;0.00;0.62;2.10;1.50;;;21.30;23.40;;;;;;2262930;61;20431;-66
2024/02/27 05:23:50;0.00;0.00;0.62;0.00;0.00;0.62;1.70;1.10;;;21.30;23.40;;;;;;2263400;61;20371;-66
2024/02/27 05:26:35;0.00;0.00;0.62;0.00;0.00;0.62;2.07;1.67;;;21.30;23.40;;;;;;2263418;61;20391;-66
2024/02/27 05:29:19;0.00;0.00;0.62;0.00;0.00;0.62;2.20;1.50;;;21.30;23.40;;;;;;2263324;61;20419;-66
2024/02/27 05:32:04;0.00;0.00;0.62;0.00;0.00;0.62;1.80;1.40;;;21.30;23.40;;;;;;2263485;61;20379;-66
2024/02/27 05:34:49;0.00;0.00;0.62;0.00;0.00;0.62;1.87;1.47;;;21.30;23.40;;;;;;2263350;61;20460;-65
2024/02/27 05:37:34;0.00;0.00;0.62;0.00;0.00;0.62;1.90;1.40;;;21.30;23.40;;;;;;2263384;61;20390;-65
2024/02/27 05:40:21;0.00;0.00;0.62;0.00;0.00;0.62;2.30;1.70;;;21.30;23.40;;;;;;2263460;61;20383;-65
2024/02/27 05:43:05;0.00;0.00;0.62;0.00;0.00;0.62;2.70;1.60;;;21.30;23.40;;;;;;2263133;61;20364;-66
2024/02/27 05:45:50;0.00;0.00;0.62;0.00;0.00;0.62;2.10;1.40;;;21.30;23.40;;;;;;2263329;61;20368;-66
2024/02/27 05:48:36;0.00;0.00;0.62;0.00;0.00;0.62;2.17;1.33;;;21.30;23.40;;;;;;2266789;61;20367;-66
2024/02/27 05:51:21;0.00;0.00;0.62;0.00;0.00;0.62;1.80;1.40;;;21.30;23.40;;;;;;2267674;61;20419;-66
2024/02/27 05:54:06;0.00;0.00;0.62;0.00;0.00;0.62;2.17;1.20;;;21.30;23.40;;;;;;2267241;61;20895;-66
2024/02/27 05:56:53;0.00;0.00;0.62;0.00;0.00;0.62;2.00;1.50;;;21.30;23.40;;;;;;2267218;61;20363;-65
2024/02/27 05:59:38;0.00;0.00;0.62;0.00;0.00;0.62;2.47;1.53;;;21.30;23.40;;;;;;2267251;61;20428;-64
2024/02/27 06:02:22;0.00;0.00;0.62;0.00;0.00;0.62;2.10;1.50;;;21.30;23.40;;;;;;2267527;61;20802;-64
2024/02/27 06:05:07;0.00;0.00;0.62;0.00;0.00;0.62;2.20;1.57;;;21.30;23.40;;;;;;2263751;61;20367;-65
2024/02/27 06:07:51;0.00;0.00;0.62;0.00;0.00;0.62;2.00;1.77;;;21.30;23.40;;;;;;2267108;61;20422;-66
2024/02/27 06:10:37;0.00;0.00;0.62;0.00;0.00;0.62;2.33;1.43;;;21.30;23.40;;;;;;2267488;61;20453;-65
2024/02/27 06:13:23;0.00;0.00;0.62;0.00;0.00;0.62;1.90;1.20;;;21.30;23.40;;;;;;2263896;61;20414;-67
2024/02/27 06:16:08;0.00;0.00;0.62;0.00;0.00;0.62;2.27;1.70;;;21.30;23.40;;;;;;2263998;61;20364;-66
2024/02/27 06:18:54;0.00;0.00;0.62;0.00;0.00;0.62;2.30;1.60;;;21.30;23.40;;;;;;2263749;61;20886;-67
2024/02/27 06:24:43;0.00;0.00;0.62;0.00;0.00;0.62;2.10;1.43;;;21.20;23.30;;;;;;2263867;61;20359;-66
2024/02/27 06:27:28;0.00;0.00;0.62;0.00;0.00;0.62;2.23;1.47;;;21.30;23.40;;;;;;2263611;61;20454;-66
2024/02/27 06:30:15;0.00;0.00;0.62;0.00;0.00;0.62;1.60;1.20;;;21.20;23.30;;;;;;2263755;61;20929;-66
2024/02/27 06:33:00;0.00;0.00;0.62;0.00;0.00;0.62;2.00;1.33;;;21.30;23.40;;;;;;2264141;61;21054;-67
2024/02/27 06:35:45;0.00;0.00;0.62;0.00;0.00;0.62;2.00;1.40;;;21.30;23.40;;;;;;2263992;61;20364;-66
2024/02/27 06:38:29;0.00;0.00;0.62;0.00;0.00;0.62;1.90;1.30;;;21.30;23.40;;;;;;2263771;61;20874;-66
2024/02/27 06:41:14;0.00;0.00;0.62;0.00;0.00;0.62;1.73;1.20;;;21.30;23.40;;;;;;2263886;61;20920;-67
2024/02/27 06:43:58;0.00;0.00;0.62;0.00;0.00;0.62;2.37;1.67;;;21.20;23.40;;;;;;2263955;61;20940;-66
2024/02/27 06:46:44;0.00;0.00;0.62;0.00;0.00;0.62;2.80;1.53;;;21.20;23.40;;;;;;2263591;61;20431;-66
2024/02/27 06:49:29;0.00;0.00;0.62;0.00;0.00;0.62;2.27;1.57;;;21.20;23.40;;;;;;2267662;61;20773;-67
2024/02/27 06:52:14;0.00;0.00;0.62;0.00;0.00;0.62;2.50;1.60;;;21.20;23.40;;;;;;2267986;61;20390;-67
2024/02/27 06:54:58;0.00;0.00;0.62;0.00;0.00;0.62;2.57;1.77;;;21.20;23.40;;;;;;2267900;61;20490;-66
2024/02/27 06:57:43;0.00;0.00;0.62;0.00;0.00;0.62;2.07;1.60;;;21.20;23.40;;;;;;2267871;61;20413;-65
2024/02/27 07:00:28;0.00;0.00;0.62;0.00;0.00;0.62;2.50;1.83;;;21.20;23.40;;;;;;2267919;61;20473;-66
2024/02/27 07:03:14;0.00;0.00;0.62;0.00;0.00;0.62;2.83;2.10;;;21.20;23.40;;;;;;2268036;61;20472;-66
2024/02/27 07:06:00;0.00;0.00;0.62;0.00;0.00;0.62;2.93;2.27;;;21.20;23.40;;;;;;2267775;61;20897;-65
2024/02/27 07:08:48;0.00;0.00;0.62;0.00;0.00;0.62;3.53;2.20;;;21.20;23.40;;;;;;2267775;61;20367;-65
2024/02/27 07:11:33;0.00;0.00;0.62;0.00;0.00;0.62;3.37;2.73;;;21.20;23.40;;;;;;2266826;61;20918;-66
2024/02/27 07:14:17;0.00;0.00;0.62;0.00;0.00;0.62;3.40;2.80;;;21.20;23.40;;;;;;2264111;61;20363;-65
2024/02/27 07:17:02;0.00;0.00;0.62;0.00;0.00;0.62;4.07;3.40;;;21.20;23.40;;;;;;2263852;61;20372;-67
2024/02/27 07:19:48;0.00;0.00;0.62;0.00;0.00;0.62;4.07;3.10;;;21.20;23.40;;;;;;2263469;61;20367;-67
2024/02/27 07:22:33;0.00;0.00;0.62;0.00;0.00;0.62;4.03;3.03;;;21.20;23.40;;;;;;2263793;61;20866;-67
2024/02/27 07:25:17;0.00;0.00;0.62;0.00;0.00;0.62;4.00;3.17;;;21.20;23.40;;;;;;2263764;61;20908;-67
2024/02/27 07:28:03;0.00;0.00;0.62;0.00;0.00;0.62;5.07;4.13;;;21.20;23.40;;;;;;2263462;61;20396;-66
2024/02/27 07:30:48;0.00;0.00;0.62;0.00;0.00;0.62;4.50;3.60;;;21.20;23.40;;;;;;2263661;61;20387;-67
2024/02/27 07:33:33;0.00;0.00;0.62;0.00;0.00;0.62;6.00;4.50;;;21.20;23.40;;;;;;2260543;61;20399;-67
2024/02/27 07:36:18;0.00;0.00;0.62;0.00;0.00;0.62;4.80;4.17;;;21.20;23.40;;;;;;2263865;61;20387;-67
2024/02/27 07:39:03;0.00;0.00;0.62;0.00;0.00;0.62;5.80;4.90;;;21.20;23.40;;;;;;2263903;61;20581;-67
2024/02/27 07:41:48;0.00;0.00;0.62;0.00;0.00;0.62;8.23;5.13;;;21.20;23.40;;;;;;2263509;61;20419;-67
2024/02/27 07:44:32;0.00;0.00;0.62;0.00;0.00;0.62;6.97;5.30;;;21.20;23.40;;;;;;2263560;61;20788;-67
2024/02/27 07:47:17;0.00;0.00;0.62;0.00;0.00;0.62;6.77;5.57;;;21.20;23.40;;;;;;2264732;61;20842;-67
2024/02/27 07:50:01;0.00;0.00;0.62;0.00;0.00;0.62;7.87;6.50;;;21.20;23.40;;;;;;2267747;61;20395;-67
2024/02/27 07:52:47;0.00;0.00;0.62;0.00;0.00;0.62;7.33;6.37;;;21.20;23.40;;;;;;2267415;61;20863;-67
2024/02/27 07:55:32;0.00;0.00;0.62;0.00;0.00;0.62;6.57;5.87;;;21.20;23.40;;;;;;2267652;61;20403;-67
2024/02/27 07:58:17;0.00;0.00;0.62;0.00;0.00;0.62;6.20;5.60;;;21.20;23.40;;;;;;2267719;61;20366;-66
2024/02/27 08:01:01;0.00;0.00;0.62;0.00;0.00;0.62;8.47;6.57;;;21.20;23.50;;;;;;2267491;61;20782;-67
2024/02/27 08:03:46;0.00;0.00;0.62;0.00;0.00;0.62;6.83;6.13;;;21.20;23.50;;;;;;2267667;61;20351;-67
2024/02/27 08:06:31;0.00;0.00;0.62;0.00;0.00;0.62;7.50;6.43;;;21.20;23.50;;;;;;2267121;61;20483;-67
2024/02/27 08:09:17;0.00;0.00;0.62;0.00;0.00;0.62;8.30;7.50;;;21.20;23.50;;;;;;2267877;61;20452;-66
2024/02/27 08:12:02;0.00;0.00;0.62;0.00;0.00;0.62;9.10;7.00;;;21.20;23.50;;;;;;2265759;61;20418;-67
2024/02/27 08:14:47;0.00;0.00;0.62;0.00;0.00;0.62;6.80;6.03;;;21.20;23.50;;;;;;2263584;61;20430;-65
2024/02/27 08:17:31;0.00;0.00;0.62;0.00;0.00;0.62;6.67;5.67;;;21.20;23.50;;;;;;2263408;61;20360;-67
2024/02/27 08:20:16;0.00;0.00;0.62;0.00;0.00;0.62;7.53;6.00;;;21.20;23.50;;;;;;2263548;61;20905;-68
2024/02/27 08:23:00;0.00;0.00;0.62;0.00;0.00;0.62;7.20;6.00;;;21.20;23.50;;;;;;2263729;61;20367;-67
2024/02/27 08:25:46;0.00;0.00;0.62;0.00;0.00;0.62;6.63;5.33;;;21.20;23.40;;;;;;2263394;61;20368;-67
2024/02/27 08:28:31;0.00;0.00;0.62;0.00;0.00;0.62;8.50;5.20;;;21.20;23.50;;;;;;2263513;61;20372;-66
2024/02/27 08:31:15;0.00;0.00;0.62;0.00;0.00;0.62;6.73;5.63;;;21.20;23.50;;;;;;2263678;61;20789;-67
2024/02/27 08:34:04;0.00;0.00;0.62;0.00;0.00;0.62;5.03;4.50;;;21.20;23.50;;;;;;2263294;61;20368;-66
2024/02/27 08:36:48;0.00;0.00;0.62;0.00;0.00;0.62;6.93;4.93;;;21.20;23.50;;;;;;2263217;61;20403;-66
2024/02/27 08:39:33;0.00;0.00;0.62;0.00;0.00;0.62;7.17;5.60;;;21.20;23.50;;;;;;2263508;61;20375;-66
2024/02/27 08:42:19;0.00;0.00;0.62;0.00;0.00;0.62;6.10;4.97;;;21.20;23.50;;;;;;2263650;61;20406;-67
2024/02/27 08:45:05;0.00;0.00;0.62;0.00;0.00;0.62;5.43;4.20;;;21.20;23.50;;;;;;2263340;61;20798;-67
2024/02/27 08:47:50;0.00;0.00;0.62;0.00;0.00;0.62;5.70;4.70;;;21.20;23.50;;;;;;2265141;61;20391;-67
2024/02/27 08:50:34;0.00;0.00;0.62;0.00;0.00;0.62;5.90;4.90;;;21.20;23.50;;;;;;2267736;61;20429;-67
2024/02/27 08:53:19;0.00;0.00;0.62;0.00;0.00;0.62;6.07;4.93;;;21.20;23.50;;;;;;2267846;61;20648;-67
2024/02/27 08:56:06;0.00;0.00;0.62;0.00;0.00;0.62;5.43;4.40;;;21.20;23.50;;;;;;2267294;61;20359;-67
2024/02/27 08:58:52;0.00;0.00;0.62;0.00;0.00;0.62;4.70;4.20;;;21.20;23.40;;;;;;2267441;61;20397;-67
2024/02/27 09:01:37;0.00;0.00;0.62;0.00;0.00;0.62;5.00;4.30;;;21.20;23.40;;;;;;2267341;61;20934;-66
2024/02/27 09:04:22;0.00;0.00;0.62;0.00;0.00;0.62;6.23;4.87;;;21.20;23.50;;;;;;2267511;61;20413;-67
2024/02/27 09:07:06;0.00;0.00;0.62;0.00;0.00;0.62;5.37;4.60;;;21.20;23.70;;;;;;2267152;61;20456;-66
2024/02/27 09:09:51;0.00;0.00;0.62;0.00;0.00;0.62;6.73;4.97;;;21.20;23.40;;;;;;2267591;61;20382;-66
2024/02/27 09:12:36;0.00;0.00;0.62;0.00;0.00;0.62;5.43;4.67;;;21.20;23.50;;;;;;2265071;61;20828;-66
2024/02/27 09:15:22;0.00;0.00;0.62;0.00;0.00;0.62;5.67;4.70;;;21.20;23.40;;;;;;2263838;61;20364;-66
2024/02/27 09:18:07;0.00;0.00;0.62;0.00;0.00;0.62;6.20;4.90;;;21.20;23.50;;;;;;2263001;61;20418;-66
2024/02/27 09:20:51;0.00;0.00;0.62;0.00;0.00;0.62;6.53;5.10;;;21.20;23.40;;;;;;2263430;61;20434;-66
2024/02/27 09:23:36;0.00;0.00;0.62;0.00;0.00;0.62;5.50;4.80;;;21.20;23.40;;;;;;2263365;61;20900;-67
2024/02/27 09:26:20;0.00;0.00;0.62;0.00;0.00;0.62;4.77;4.27;;;21.20;23.40;;;;;;2263347;61;20426;-66
2024/02/27 09:29:05;0.00;0.00;0.62;0.00;0.00;0.62;5.83;5.20;;;21.20;23.40;;;;;;2263058;61;20442;-66
2024/02/27 09:31:50;0.00;0.00;0.62;0.00;0.00;0.62;6.20;4.70;;;21.20;23.40;;;;;;2263310;61;20412;-67
2024/02/27 09:34:35;0.00;0.00;0.62;0.00;0.00;0.62;6.77;5.63;;;21.20;23.40;;;;;;2263398;61;20403;-66
2024/02/27 09:37:22;0.00;0.00;0.62;0.00;0.00;0.62;5.27;4.77;;;21.20;23.50;;;;;;2263135;61;20407;-66
2024/02/27 09:40:08;0.00;0.00;0.62;0.00;0.00;0.62;5.60;4.27;;;21.20;23.40;;;;;;2263063;61;20400;-66
2024/02/27 09:42:56;0.00;0.00;0.62;0.00;0.00;0.62;5.90;4.33;;;21.20;23.70;;;;;;2263318;61;20438;-66
2024/02/27 09:45:41;0.00;0.00;0.62;0.00;0.00;0.62;4.87;4.10;;;21.20;23.50;;;;;;2262899;61;20876;-67
2024/02/27 09:48:29;0.00;0.00;0.62;0.00;0.00;0.62;5.07;4.00;;;21.20;23.40;;;;;;2267000;61;20362;-66
2024/02/27 09:51:16;0.00;0.00;0.62;0.00;0.00;0.62;5.10;4.00;;;21.20;23.50;;;;;;2267762;61;20444;-67
2024/02/27 09:54:02;0.00;0.00;0.62;0.00;0.00;0.62;5.80;4.60;;;21.20;23.50;;;;;;2267575;61;20409;-66
2024/02/27 09:56:47;0.00;0.00;0.62;0.00;0.00;0.62;5.20;4.30;;;21.20;23.50;;;;;;2267832;61;20784;-67
2024/02/27 09:59:33;0.00;0.00;0.62;0.00;0.00;0.62;5.47;4.40;;;21.20;23.50;;;;;;2267695;61;20362;-66
2024/02/27 10:02:18;0.00;0.00;0.62;0.00;0.00;0.62;6.90;4.47;;;21.20;23.50;;;;;;2267733;61;20367;-66
2024/02/27 10:05:06;0.00;0.00;0.62;0.00;0.00;0.62;5.10;4.53;;;21.20;23.50;;;;;;2267989;61;20377;-66
2024/02/27 10:07:51;0.00;0.00;0.62;0.00;0.00;0.62;5.70;5.10;;;21.20;23.50;;;;;;2267932;61;20407;-66
2024/02/27 10:10:38;0.00;0.00;0.62;0.00;0.00;0.62;7.73;5.10;;;21.20;23.50;;;;;;2267887;61;20459;-67
2024/02/27 10:13:23;0.00;0.00;0.62;0.00;0.00;0.62;5.33;4.73;;;21.20;23.50;;;;;;2264118;61;21142;-66
2024/02/27 10:16:07;0.00;0.00;0.62;0.00;0.00;0.62;5.57;4.20;;;21.20;23.50;;;;;;2264014;61;20915;-66
2024/02/27 10:18:52;0.00;0.00;0.62;0.00;0.00;0.62;6.30;4.63;;;21.20;23.50;;;;;;2263818;61;20368;-67
2024/02/27 10:21:38;0.00;0.00;0.62;0.00;0.00;0.62;5.23;3.77;;;21.20;23.50;;;;;;2263913;61;20900;-67
2024/02/27 10:24:28;0.00;0.00;0.62;0.00;0.00;0.62;5.67;4.60;;;21.20;23.50;;;;;;2263760;61;20658;-66
2024/02/27 10:27:13;0.00;0.00;0.62;0.00;0.00;0.62;6.17;4.70;;;21.30;23.50;;;;;;2263601;61;20809;-66
2024/02/27 10:29:57;0.00;0.00;0.62;0.00;0.00;0.62;5.43;4.87;;;21.20;23.50;;;;;;2263999;61;20834;-66
2024/02/27 10:32:43;0.00;0.00;0.62;0.00;0.00;0.62;5.17;4.67;;;21.20;23.50;;;;;;2263825;61;20367;-66
2024/02/27 10:35:32;0.00;0.00;0.62;0.00;0.00;0.62;5.13;4.63;;;21.20;23.50;;;;;;2263878;61;20480;-66
2024/02/27 10:38:21;0.00;0.00;0.62;0.00;0.00;0.62;5.47;4.90;;;21.20;23.50;;;;;;2263827;61;20360;-67
2024/02/27 10:41:06;0.00;0.00;0.62;0.00;0.00;0.62;5.50;4.47;;;21.20;23.50;;;;;;2263953;61;20379;-66
2024/02/27 10:43:51;0.00;0.00;0.62;0.00;0.00;0.62;5.33;4.47;;;21.30;23.50;;;;;;2263903;61;20456;-66
2024/02/27 10:46:36;0.00;0.00;0.62;0.00;0.00;0.62;5.97;4.90;;;21.30;23.50;;;;;;2263522;61;20400;-67
2024/02/27 10:49:25;0.00;0.00;0.62;0.00;0.00;0.62;7.27;5.40;;;21.30;23.50;;;;;;2266897;61;21017;-67
2024/02/27 10:52:12;0.00;0.00;0.62;0.00;0.00;0.62;6.80;5.20;;;21.20;23.50;;;;;;2268172;61;20452;-67
2024/02/27 10:54:59;0.00;0.00;0.62;0.00;0.00;0.62;6.83;4.50;;;21.30;23.50;;;;;;2268374;61;20698;-67